Données climatiques 2023 : Températures et précipitations
Données climatiques 2023 : Températures et précipitations
33.3129032
PRECIPITACI
TEMPERATURA (°C) HUMEDAD TEMPERATURA (°C) HUMEDAD
ÓN (mm/día) ES / DÍA
RELATIVA (%) RELATIVA (%)
MIN TOTAL MAX MIN
20.2 61 0 4/1/2023 33.2 16.6 67.1
19.2 61.4 T 4/2/2023 29.8 16 75.1
18.8 62.7 0 4/3/2023 32.6 15.8 69.8
18.4 61.6 0 4/4/2023 34.8 16.6 67.2
19.6 66.3 0 4/5/2023 33.8 20.8 68.4
20 60.3 0 4/6/2023 33.4 18.6 66.2
19.6 62.8 0 4/7/2023 33 18.6 68.4
19.8 63.8 0 4/8/2023 33 18.2 66.1
20.8 64.5 T 4/9/2023 33.8 18.8 67
21 73.5 0.4 4/10/2023 34 17.8 66.6
22 78.3 3.5 4/11/2023 33 17.6 67.6
20.8 72.5 T 4/12/2023 33 15.5 70.8
21 68.2 0 4/13/2023 32.8 15.8 69.3
22.2 61.9 0 4/14/2023 32 15.4 71.5
21.8 67.6 0 4/15/2023 33.4 15.8 71.3
21.4 63 0 4/16/2023 33.5 18.6 71.6
18.8 63.5 0 4/17/2023 32.8 17 71.6
19 63.5 0 4/18/2023 33.6 16.8 65.7
18.8 69.3 0 4/19/2023 33.2 15.4 69.2
18.4 64 0 4/20/2023 31.8 15.2 71.2
18.6 67.5 0 4/21/2023 32 15.5 73.1
17.2 63.8 0 4/22/2023 31.8 16 71.2
18 64.1 0 4/23/2023 32.2 17 71.1
18 69.5 0 4/24/2023 32 16.6 70.7
16.9 66.7 0 4/25/2023 32.2 15.8 68.6
17.6 59.3 0 4/26/2023 31 16 70
17 65.2 0 4/27/2023 32.8 16.2 69.1
16.6 65.5 0 4/28/2023 32.8 15.6 71.5
16.8 68.5 0 4/29/2023 32.8 15.8 70.7
17.2 69.3 0 4/30/2023 32.4 15.2 70.9
17.8 66.7 0 32.75 16.6866667
19.1387097 0.13928571
PRECIPITACI PRECIPITACI
TEMPERATURA (°C) HUMEDAD
ÓN (mm/día) ES / DÍA ÓN (mm/día)
RELATIVA (%)
TOTAL MAX MIN TOTAL
0 5/1/2023 33.2 15.2 69.8 0
0 5/2/2023 30 14.8 74.4 0
0 5/3/2023 30.6 14.8 73 0
0 5/4/2023 30.6 14.6 72.4 0
0 5/5/2023 29.8 13.6 76.3 0
T 5/6/2023 29.6 13.4 75.8 0
T 5/7/2023 29.6 14.4 77.6 0
0 5/8/2023 29.6 13.6 76.8 0
0 5/9/2023 30.8 12.8 74.7 0
0 5/10/2023 30.4 13.2 73.3 0
0 5/11/2023 27 12.6 81.1 0
0 5/12/2023 28.8 13.8 80.3 0
0 5/13/2023 26.4 13.4 78.4 0
0 5/14/2023 28.4 13 77.4 0
0 5/15/2023 27.6 13.8 77.6 0
0 5/16/2023 26.2 14 77.2 0
0 5/17/2023 27 13.8 78.8 0
0 5/18/2023 26.6 13.6 79.7 0
0 5/19/2023 26.8 12.8 78.1 0
0 5/20/2023 25.8 13.4 79.8 0
0 5/21/2023 24.6 11.2 79.9 0
0 5/22/2023 27.2 13 79.6 0
0 5/23/2023 26.8 14.4 77.6 0
0 5/24/2023 26.6 14.6 77.3 0
0 5/25/2023 27 12 74.8 0
0 5/26/2023 26.6 12.6 80.1 0
0 5/27/2023 25.6 13.6 80.6 0
0 5/28/2023 25 14.8 81.7 0
0 5/29/2023 26.6 13.4 79.4 0
0 5/30/2023 26.8 13.8 75.9 0
27.8193548 13.6 0
PRECIPITACI
TEMPERATURA (°C) HUMEDAD TEMPERATURA (°C)
ES / DÍA ÓN (mm/día) S / DÍA
RELATIVA (%)
MAX MIN TOTAL MAX
6/1/2023 26.2 13 76.4 0 7/1/2023 25.2
6/2/2023 25.2 12.8 77.9 0 7/2/2023 26.8
6/3/2023 24.8 12.2 79.9 0 7/3/2023 25.6
6/4/2023 26 14 75.3 0 7/4/2023 25.8
6/5/2023 24.8 12 78.9 0 7/5/2023 26.8
6/6/2023 26.8 12.4 71.8 0 7/6/2023 24
6/7/2023 28 12.6 69.7 0 7/7/2023 24.6
6/8/2023 25.8 13.2 77.1 0 7/8/2023 25.6
6/9/2023 22.8 14 82.3 0 7/9/2023 26.8
6/10/2023 24.8 13.6 79.3 0 7/10/2023 25.8
6/11/2023 26.8 12.4 75.3 0 7/11/2023 25.6
6/12/2023 26.8 10 78 0 7/12/2023 26
6/13/2023 27 11.8 73.1 0 7/13/2023 26
6/14/2023 28 12 73.2 0 7/14/2023 24.8
6/15/2023 26.6 12.2 75.4 0 7/15/2023 22.8
6/16/2023 25.4 11.2 76.9 0 7/16/2023 23
6/17/2023 25.2 10 76.1 0 7/17/2023 25
6/18/2023 26 10.8 73.5 0 7/18/2023 24.2
6/19/2023 25.6 11.6 76.4 0 7/19/2023 25.2
6/20/2023 25.2 11.8 76.1 0 7/20/2023 24.8
6/21/2023 25.2 11.8 78.8 0 7/21/2023 25
6/22/2023 25 11.4 74.6 0 7/22/2023 26.6
6/23/2023 25 11 77.3 0 7/23/2023 25.6
6/24/2023 25.4 11.4 77.2 0 7/24/2023 25.8
6/25/2023 25.6 10 76.6 0 7/25/2023 25.2
6/26/2023 24.8 11.8 76.8 0 7/26/2023 25.4
6/27/2023 23 12.8 82.9 0 7/27/2023 25.8
6/28/2023 26.2 10.2 76.4 0 7/28/2023 26.6
6/29/2023 25.4 10.8 76.3 0 7/29/2023 25.8
6/30/2023 25.8 10.4 79 0 7/30/2023 27.2
25.483871
PRECIPITACI
TEMPERATURA (°C) HUMEDAD TEMPERATURA (°C) HUMEDAD
ÓN (mm/día) / DÍA
RELATIVA (%) RELATIVA (%)
MIN TOTAL MAX MIN
10 78 0 8/1/2023 25.4 10.8 75.7
12 73.4 0 8/2/2023 25.4 9.8 77
13.8 78 0 8/3/2023 25.6 11.2 76.3
12.8 76.5 0 8/4/2023 25.8 10.8 76.8
11.4 76.2 0 8/5/2023 26.6 10.6 76.6
12.8 79.3 0 8/6/2023 26.8 10 74.5
13 78.1 0 8/7/2023 25.6 10 75.7
11.4 75.6 0 8/8/2023 27.4 9.6 73.1
8.6 75 0 8/9/2023 26.8 11.4 74.2
10 76.2 0 8/10/2023 26.6 13 74.5
8.4 76.7 0 8/11/2023 25.4 13.2 77.8
13.6 75.3 0 8/12/2023 26.4 13.6 73.8
11.8 75.1 0 8/13/2023 27 12.8 70.3
13.4 80 0 8/14/2023 30 9.6 66.2
13.2 79.1 T 8/15/2023 25.2 12.8 78.6
13.4 79.5 0 8/16/2023 25.8 14.8 77
12.6 78.6 0 8/17/2023 25 15.2 78.4
12.4 80.1 0 8/18/2023 22.8 14.8 76.3
12.6 78 0 8/19/2023 27 13.8 68.3
12.8 80.2 0 8/20/2023 27.8 12 70.2
10.2 77.9 0 8/21/2023 30.2 11 77.6
10 74.4 0 8/22/2023 22.8 12.8 80.4
12.4 80.2 0 8/23/2023 22.8 13.4 78.4
10.4 75.9 0 8/24/2023 27.8 12.6 73.7
13 74.2 0 8/25/2023 27 11.2 83
12.8 78.1 0 8/26/2023 25.4 12.2 77
10.4 75.8 0 8/27/2023 27.4 12.8 74.2
9.4 72.3 0 8/28/2023 25.6 13 76.1
10.8 74.1 0 8/29/2023 26.6 12.8 74.9
9.6 74.3 0 8/30/2023 27.4 12.6 68.6
10.2 75.4 0 8/31/2023 27 12.2 71.9
0
TEMPERATURA
MESES TEMP. MAXTEMP. MIN. TEMP. PROM. PRECIPITACION
ENERO 32.683871 17.1741935 24.92903225 0
FEBRERO 33.5785714 19.8785714 26.7285714 -46.7157895
MARZO 33.3129032 19.1387097 26.22580645 0.13928571
ABRIL 32.75 16.6866667 24.71833335 0
MAYO 27.8193548 13.6 20.7096774 0
JUNIO 25.64 11.84 18.74 0
JULIO 25.483871 11.5870968 18.5354839 0
AGOSTO 26.2709677 12.1419355 19.2064516 0
SEPTIEMBR 28.26 12.9333333 20.59666665 0
OCTUBRE 31.283871 14.9935484 23.1387097 0
NOVIEMBR 31.4 14.7533333 23.07666665 0
DICIEMBRE 32.4322581 16.3935484 24.41290325 0
Chart Title
40 10
35 9
30 8
25 7
20 6
15 5
10 4
5 3
0 2
O O O IL O IO O O E E E E 1
ER ER RZ BR A
Y N LI ST BR BR BR BR
EN R A A M JU JU O
EM
U M M 0
FE
B M A
G
TI CT IE IE O O O
O V IC
SE
P
N
O D ER RER RZ
EN B M
A
FE
TEMP. MAX. TEMP. MIN. TEMP. PROM.
MESES PRECIPITACION
ENERO 0
FEBRERO 0
MARZO 0.13928571
ABRIL 0
MAYO 0
JUNIO 0
JULIO 0
AGOSTO 0
SEPTIEMBR 0
OCTUBRE 0
NOVIEMBR 0
DICIEMBRE 0
PRECIPITACION
10
9
8
7
6
5
4
3
2
1
0
O O O IL O IO O O E E E E
ER ER RZ BR A
Y N LI ST BR BR BR BR
EN R A A M J U JU O M U M M
FE
B M A
G
TIE CT IE IE
P O O
V IC
SE N D